sensor_id;sensor_type;location;lat;lon;timestamp;temperature;humidity
68922;DHT22;55959;51.244;5.724;2024-01-30T00:01:52;11.50;67.50
68922;DHT22;55959;51.244;5.724;2024-01-30T00:04:18;11.50;67.50
68922;DHT22;55959;51.244;5.724;2024-01-30T00:06:44;11.50;67.70
68922;DHT22;55959;51.244;5.724;2024-01-30T00:09:10;11.50;67.70
68922;DHT22;55959;51.244;5.724;2024-01-30T00:11:37;11.50;67.90
68922;DHT22;55959;51.244;5.724;2024-01-30T00:14:04;11.50;67.90
68922;DHT22;55959;51.244;5.724;2024-01-30T00:16:30;11.40;68.10
68922;DHT22;55959;51.244;5.724;2024-01-30T00:18:55;11.40;68.10
68922;DHT22;55959;51.244;5.724;2024-01-30T00:21:21;11.40;68.20
68922;DHT22;55959;51.244;5.724;2024-01-30T00:23:47;11.40;68.30
68922;DHT22;55959;51.244;5.724;2024-01-30T00:26:14;11.40;68.30
68922;DHT22;55959;51.244;5.724;2024-01-30T00:28:43;11.40;68.30
68922;DHT22;55959;51.244;5.724;2024-01-30T00:31:09;11.40;68.40
68922;DHT22;55959;51.244;5.724;2024-01-30T00:33:41;11.40;68.40
68922;DHT22;55959;51.244;5.724;2024-01-30T00:36:08;11.40;68.50
68922;DHT22;55959;51.244;5.724;2024-01-30T00:38:35;11.30;68.40
68922;DHT22;55959;51.244;5.724;2024-01-30T00:41:01;11.30;68.50
68922;DHT22;55959;51.244;5.724;2024-01-30T00:43:29;11.30;68.50
68922;DHT22;55959;51.244;5.724;2024-01-30T00:45:56;11.30;68.50
68922;DHT22;55959;51.244;5.724;2024-01-30T00:48:23;11.30;68.60
68922;DHT22;55959;51.244;5.724;2024-01-30T00:50:49;11.30;68.70
68922;DHT22;55959;51.244;5.724;2024-01-30T00:53:15;11.30;68.80
68922;DHT22;55959;51.244;5.724;2024-01-30T00:55:40;11.20;68.90
68922;DHT22;55959;51.244;5.724;2024-01-30T00:58:06;11.20;68.90
68922;DHT22;55959;51.244;5.724;2024-01-30T01:00:32;11.20;69.10
68922;DHT22;55959;51.244;5.724;2024-01-30T01:02:59;11.20;69.10
68922;DHT22;55959;51.244;5.724;2024-01-30T01:05:25;11.20;69.10
68922;DHT22;55959;51.244;5.724;2024-01-30T01:07:51;11.20;69.20
68922;DHT22;55959;51.244;5.724;2024-01-30T01:10:17;11.20;69.20
68922;DHT22;55959;51.244;5.724;2024-01-30T01:12:44;11.20;69.10
68922;DHT22;55959;51.244;5.724;2024-01-30T01:15:10;11.20;69.10
68922;DHT22;55959;51.244;5.724;2024-01-30T01:17:37;11.10;69.10
68922;DHT22;55959;51.244;5.724;2024-01-30T01:20:04;11.10;69.10
68922;DHT22;55959;51.244;5.724;2024-01-30T01:22:32;11.10;69.10
68922;DHT22;55959;51.244;5.724;2024-01-30T01:24:58;11.10;69.20
68922;DHT22;55959;51.244;5.724;2024-01-30T01:27:24;11.10;69.10
68922;DHT22;55959;51.244;5.724;2024-01-30T01:29:52;11.10;69.10
68922;DHT22;55959;51.244;5.724;2024-01-30T01:32:18;11.10;69.20
68922;DHT22;55959;51.244;5.724;2024-01-30T01:34:44;11.10;69.10
68922;DHT22;55959;51.244;5.724;2024-01-30T01:37:09;11.10;69.20
68922;DHT22;55959;51.244;5.724;2024-01-30T01:39:35;11.10;69.30
68922;DHT22;55959;51.244;5.724;2024-01-30T01:42:01;11.10;69.30
68922;DHT22;55959;51.244;5.724;2024-01-30T01:44:27;11.00;69.30
68922;DHT22;55959;51.244;5.724;2024-01-30T01:46:54;11.00;69.30
68922;DHT22;55959;51.244;5.724;2024-01-30T01:49:22;11.00;69.40
68922;DHT22;55959;51.244;5.724;2024-01-30T01:51:50;11.00;69.40
68922;DHT22;55959;51.244;5.724;2024-01-30T01:54:17;11.00;69.40
68922;DHT22;55959;51.244;5.724;2024-01-30T01:56:43;11.00;69.40
68922;DHT22;55959;51.244;5.724;2024-01-30T01:59:09;11.00;69.50
68922;DHT22;55959;51.244;5.724;2024-01-30T02:01:38;11.00;69.40
68922;DHT22;55959;51.244;5.724;2024-01-30T02:04:07;11.00;69.40
68922;DHT22;55959;51.244;5.724;2024-01-30T02:06:34;11.00;69.40
68922;DHT22;55959;51.244;5.724;2024-01-30T02:09:00;11.00;69.40
68922;DHT22;55959;51.244;5.724;2024-01-30T02:11:26;11.00;69.40
68922;DHT22;55959;51.244;5.724;2024-01-30T02:13:53;10.90;69.30
68922;DHT22;55959;51.244;5.724;2024-01-30T02:16:19;10.90;69.30
68922;DHT22;55959;51.244;5.724;2024-01-30T02:18:50;10.90;69.30
68922;DHT22;55959;51.244;5.724;2024-01-30T02:21:16;10.90;69.20
68922;DHT22;55959;51.244;5.724;2024-01-30T02:23:44;10.90;69.10
68922;DHT22;55959;51.244;5.724;2024-01-30T02:26:10;10.90;69.20
68922;DHT22;55959;51.244;5.724;2024-01-30T02:28:37;10.90;69.10
68922;DHT22;55959;51.244;5.724;2024-01-30T02:31:03;10.90;69.20
68922;DHT22;55959;51.244;5.724;2024-01-30T02:33:29;10.90;69.30
68922;DHT22;55959;51.244;5.724;2024-01-30T02:35:55;10.90;69.30
68922;DHT22;55959;51.244;5.724;2024-01-30T02:38:21;10.90;69.30
68922;DHT22;55959;51.244;5.724;2024-01-30T02:40:48;10.90;69.40
68922;DHT22;55959;51.244;5.724;2024-01-30T02:43:15;10.90;69.50
68922;DHT22;55959;51.244;5.724;2024-01-30T02:45:41;10.90;69.50
68922;DHT22;55959;51.244;5.724;2024-01-30T02:48:07;10.80;69.40
68922;DHT22;55959;51.244;5.724;2024-01-30T02:50:33;10.80;69.40
68922;DHT22;55959;51.244;5.724;2024-01-30T02:52:59;10.80;69.30
68922;DHT22;55959;51.244;5.724;2024-01-30T02:55:25;10.80;69.30
68922;DHT22;55959;51.244;5.724;2024-01-30T02:57:50;10.80;69.30
68922;DHT22;55959;51.244;5.724;2024-01-30T03:00:16;10.80;69.40
68922;DHT22;55959;51.244;5.724;2024-01-30T03:02:42;10.80;69.50
68922;DHT22;55959;51.244;5.724;2024-01-30T03:05:08;10.80;69.60
68922;DHT22;55959;51.244;5.724;2024-01-30T03:07:34;10.80;69.70
68922;DHT22;55959;51.244;5.724;2024-01-30T03:10:00;10.80;69.90
68922;DHT22;55959;51.244;5.724;2024-01-30T03:12:26;10.80;69.90
68922;DHT22;55959;51.244;5.724;2024-01-30T03:14:51;10.80;69.90
68922;DHT22;55959;51.244;5.724;2024-01-30T03:17:18;10.80;70.10
68922;DHT22;55959;51.244;5.724;2024-01-30T03:19:43;10.80;70.10
68922;DHT22;55959;51.244;5.724;2024-01-30T03:22:09;10.80;70.30
68922;DHT22;55959;51.244;5.724;2024-01-30T03:24:35;10.80;70.30
68922;DHT22;55959;51.244;5.724;2024-01-30T03:27:01;10.80;70.30
68922;DHT22;55959;51.244;5.724;2024-01-30T03:29:26;10.80;70.30
68922;DHT22;55959;51.244;5.724;2024-01-30T03:31:52;10.80;70.30
68922;DHT22;55959;51.244;5.724;2024-01-30T03:34:18;10.80;70.40
68922;DHT22;55959;51.244;5.724;2024-01-30T03:36:44;10.80;70.50
68922;DHT22;55959;51.244;5.724;2024-01-30T03:39:09;10.80;70.60
68922;DHT22;55959;51.244;5.724;2024-01-30T03:41:35;10.80;70.70
68922;DHT22;55959;51.244;5.724;2024-01-30T03:44:01;10.80;70.70
68922;DHT22;55959;51.244;5.724;2024-01-30T03:46:27;10.80;70.80
68922;DHT22;55959;51.244;5.724;2024-01-30T03:48:53;10.80;70.90
68922;DHT22;55959;51.244;5.724;2024-01-30T03:51:19;10.70;70.80
68922;DHT22;55959;51.244;5.724;2024-01-30T03:53:45;10.80;70.90
68922;DHT22;55959;51.244;5.724;2024-01-30T03:56:12;10.80;71.00
68922;DHT22;55959;51.244;5.724;2024-01-30T03:58:41;10.80;71.10
68922;DHT22;55959;51.244;5.724;2024-01-30T04:01:07;10.80;71.00
68922;DHT22;55959;51.244;5.724;2024-01-30T04:03:33;10.80;71.00
68922;DHT22;55959;51.244;5.724;2024-01-30T04:05:59;10.80;71.00
68922;DHT22;55959;51.244;5.724;2024-01-30T04:08:24;10.80;71.00
68922;DHT22;55959;51.244;5.724;2024-01-30T04:10:50;10.80;71.10
68922;DHT22;55959;51.244;5.724;2024-01-30T04:13:16;10.80;71.00
68922;DHT22;55959;51.244;5.724;2024-01-30T04:15:42;10.80;71.00
68922;DHT22;55959;51.244;5.724;2024-01-30T04:18:07;10.80;71.00
68922;DHT22;55959;51.244;5.724;2024-01-30T04:20:33;10.80;71.00
68922;DHT22;55959;51.244;5.724;2024-01-30T04:22:59;10.80;71.00
68922;DHT22;55959;51.244;5.724;2024-01-30T04:25:25;10.80;70.90
68922;DHT22;55959;51.244;5.724;2024-01-30T04:27:50;10.80;70.80
68922;DHT22;55959;51.244;5.724;2024-01-30T04:30:16;10.80;70.70
68922;DHT22;55959;51.244;5.724;2024-01-30T04:32:43;10.80;70.70
68922;DHT22;55959;51.244;5.724;2024-01-30T04:35:08;10.80;70.70
68922;DHT22;55959;51.244;5.724;2024-01-30T04:37:34;10.80;70.60
68922;DHT22;55959;51.244;5.724;2024-01-30T04:40:00;10.80;71.50
68922;DHT22;55959;51.244;5.724;2024-01-30T04:42:25;10.80;70.50
68922;DHT22;55959;51.244;5.724;2024-01-30T04:44:51;10.80;70.50
68922;DHT22;55959;51.244;5.724;2024-01-30T04:47:17;10.80;70.50
68922;DHT22;55959;51.244;5.724;2024-01-30T04:49:43;10.80;70.30
68922;DHT22;55959;51.244;5.724;2024-01-30T04:52:09;10.80;70.40
68922;DHT22;55959;51.244;5.724;2024-01-30T04:54:35;10.80;70.30
68922;DHT22;55959;51.244;5.724;2024-01-30T04:57:02;10.70;70.30
68922;DHT22;55959;51.244;5.724;2024-01-30T04:59:28;10.70;70.20
68922;DHT22;55959;51.244;5.724;2024-01-30T05:01:54;10.70;70.20
68922;DHT22;55959;51.244;5.724;2024-01-30T05:04:20;10.70;70.30
68922;DHT22;55959;51.244;5.724;2024-01-30T05:06:46;10.70;70.40
68922;DHT22;55959;51.244;5.724;2024-01-30T05:09:12;10.70;70.50
68922;DHT22;55959;51.244;5.724;2024-01-30T05:11:41;10.70;70.60
68922;DHT22;55959;51.244;5.724;2024-01-30T05:14:07;10.70;70.70
68922;DHT22;55959;51.244;5.724;2024-01-30T05:16:34;10.70;70.90
68922;DHT22;55959;51.244;5.724;2024-01-30T05:19:00;10.70;71.00
68922;DHT22;55959;51.244;5.724;2024-01-30T05:21:26;10.70;71.00
68922;DHT22;55959;51.244;5.724;2024-01-30T05:23:52;10.70;71.10
68922;DHT22;55959;51.244;5.724;2024-01-30T05:26:17;10.70;71.10
68922;DHT22;55959;51.244;5.724;2024-01-30T05:28:44;10.70;71.20
68922;DHT22;55959;51.244;5.724;2024-01-30T05:31:13;10.70;71.30
68922;DHT22;55959;51.244;5.724;2024-01-30T05:33:39;10.70;71.30
68922;DHT22;55959;51.244;5.724;2024-01-30T05:36:06;10.70;71.40
68922;DHT22;55959;51.244;5.724;2024-01-30T05:38:31;10.80;71.50
68922;DHT22;55959;51.244;5.724;2024-01-30T05:40:57;10.80;71.50
68922;DHT22;55959;51.244;5.724;2024-01-30T05:43:24;10.70;71.50
68922;DHT22;55959;51.244;5.724;2024-01-30T05:45:50;10.80;71.60
68922;DHT22;55959;51.244;5.724;2024-01-30T05:48:16;10.80;71.70
68922;DHT22;55959;51.244;5.724;2024-01-30T05:50:42;10.80;71.70
68922;DHT22;55959;51.244;5.724;2024-01-30T05:53:08;10.80;71.90
68922;DHT22;55959;51.244;5.724;2024-01-30T05:55:34;10.80;71.90
68922;DHT22;55959;51.244;5.724;2024-01-30T05:58:00;10.80;72.00
68922;DHT22;55959;51.244;5.724;2024-01-30T06:00:25;10.80;72.10
68922;DHT22;55959;51.244;5.724;2024-01-30T06:02:52;10.80;72.10
68922;DHT22;55959;51.244;5.724;2024-01-30T06:05:17;10.80;72.20
68922;DHT22;55959;51.244;5.724;2024-01-30T06:07:43;10.80;72.30
68922;DHT22;55959;51.244;5.724;2024-01-30T06:10:09;10.90;72.50
68922;DHT22;55959;51.244;5.724;2024-01-30T06:12:35;10.90;72.60
68922;DHT22;55959;51.244;5.724;2024-01-30T06:15:01;10.90;72.60
68922;DHT22;55959;51.244;5.724;2024-01-30T06:17:28;10.90;72.70
68922;DHT22;55959;51.244;5.724;2024-01-30T06:19:54;10.90;72.90
68922;DHT22;55959;51.244;5.724;2024-01-30T06:22:20;11.00;73.00
68922;DHT22;55959;51.244;5.724;2024-01-30T06:24:46;11.00;73.10
68922;DHT22;55959;51.244;5.724;2024-01-30T06:27:14;11.00;73.10
68922;DHT22;55959;51.244;5.724;2024-01-30T06:29:41;11.00;73.20
68922;DHT22;55959;51.244;5.724;2024-01-30T06:32:08;11.10;73.30
68922;DHT22;55959;51.244;5.724;2024-01-30T06:34:33;11.10;73.40
68922;DHT22;55959;51.244;5.724;2024-01-30T06:36:59;11.20;73.50
68922;DHT22;55959;51.244;5.724;2024-01-30T06:39:26;11.10;73.40
68922;DHT22;55959;51.244;5.724;2024-01-30T06:41:52;11.20;73.50
68922;DHT22;55959;51.244;5.724;2024-01-30T06:44:18;11.20;73.50
68922;DHT22;55959;51.244;5.724;2024-01-30T06:46:44;11.30;73.70
68922;DHT22;55959;51.244;5.724;2024-01-30T06:49:09;11.30;73.60
68922;DHT22;55959;51.244;5.724;2024-01-30T06:51:35;11.30;74.50
68922;DHT22;55959;51.244;5.724;2024-01-30T06:54:01;11.40;73.70
68922;DHT22;55959;51.244;5.724;2024-01-30T06:56:27;11.40;73.70
68922;DHT22;55959;51.244;5.724;2024-01-30T06:58:53;11.40;73.70
68922;DHT22;55959;51.244;5.724;2024-01-30T07:01:19;11.50;73.80
68922;DHT22;55959;51.244;5.724;2024-01-30T07:03:45;11.50;73.70
68922;DHT22;55959;51.244;5.724;2024-01-30T07:06:11;11.50;73.70
68922;DHT22;55959;51.244;5.724;2024-01-30T07:08:37;11.60;74.70
68922;DHT22;55959;51.244;5.724;2024-01-30T07:11:05;11.60;73.80
68922;DHT22;55959;51.244;5.724;2024-01-30T07:13:31;11.60;73.80
68922;DHT22;55959;51.244;5.724;2024-01-30T07:15:57;11.60;73.70
68922;DHT22;55959;51.244;5.724;2024-01-30T07:18:23;11.60;73.70
68922;DHT22;55959;51.244;5.724;2024-01-30T07:20:49;11.70;73.80
68922;DHT22;55959;51.244;5.724;2024-01-30T07:23:16;11.70;73.80
68922;DHT22;55959;51.244;5.724;2024-01-30T07:25:46;11.80;73.90
68922;DHT22;55959;51.244;5.724;2024-01-30T07:28:15;11.80;73.80
68922;DHT22;55959;51.244;5.724;2024-01-30T07:30:44;11.80;73.80
68922;DHT22;55959;51.244;5.724;2024-01-30T07:33:09;11.80;73.70
68922;DHT22;55959;51.244;5.724;2024-01-30T07:35:36;11.80;73.70
68922;DHT22;55959;51.244;5.724;2024-01-30T07:38:02;11.90;73.80
68922;DHT22;55959;51.244;5.724;2024-01-30T07:40:27;11.80;73.70
68922;DHT22;55959;51.244;5.724;2024-01-30T07:42:54;11.90;73.80
68922;DHT22;55959;51.244;5.724;2024-01-30T07:45:20;11.90;73.80
68922;DHT22;55959;51.244;5.724;2024-01-30T07:47:49;11.90;73.80
68922;DHT22;55959;51.244;5.724;2024-01-30T07:50:15;12.00;73.80
68922;DHT22;55959;51.244;5.724;2024-01-30T07:52:42;12.00;73.80
68922;DHT22;55959;51.244;5.724;2024-01-30T07:55:08;12.00;73.70
68922;DHT22;55959;51.244;5.724;2024-01-30T07:57:34;12.10;73.80
68922;DHT22;55959;51.244;5.724;2024-01-30T08:00:03;12.10;74.60
68922;DHT22;55959;51.244;5.724;2024-01-30T08:02:31;12.10;73.70
68922;DHT22;55959;51.244;5.724;2024-01-30T08:04:56;12.10;73.70
68922;DHT22;55959;51.244;5.724;2024-01-30T08:07:22;12.10;73.70
68922;DHT22;55959;51.244;5.724;2024-01-30T08:09:48;12.10;73.50
68922;DHT22;55959;51.244;5.724;2024-01-30T08:12:14;12.20;73.60
68922;DHT22;55959;51.244;5.724;2024-01-30T08:14:39;12.20;73.60
68922;DHT22;55959;51.244;5.724;2024-01-30T08:17:06;12.30;73.60
68922;DHT22;55959;51.244;5.724;2024-01-30T08:19:33;12.30;73.60
68922;DHT22;55959;51.244;5.724;2024-01-30T08:21:59;12.30;73.60
68922;DHT22;55959;51.244;5.724;2024-01-30T08:24:24;12.30;73.60
68922;DHT22;55959;51.244;5.724;2024-01-30T08:26:50;12.30;73.50
68922;DHT22;55959;51.244;5.724;2024-01-30T08:29:16;12.30;73.50
68922;DHT22;55959;51.244;5.724;2024-01-30T08:31:42;12.40;73.50
68922;DHT22;55959;51.244;5.724;2024-01-30T08:34:08;12.40;73.50
68922;DHT22;55959;51.244;5.724;2024-01-30T08:36:33;12.40;73.50
68922;DHT22;55959;51.244;5.724;2024-01-30T08:38:59;12.50;73.50
68922;DHT22;55959;51.244;5.724;2024-01-30T08:41:25;12.50;73.50
68922;DHT22;55959;51.244;5.724;2024-01-30T08:43:52;12.50;73.50
68922;DHT22;55959;51.244;5.724;2024-01-30T08:46:18;12.50;73.40
68922;DHT22;55959;51.244;5.724;2024-01-30T08:48:44;12.50;73.30
68922;DHT22;55959;51.244;5.724;2024-01-30T08:51:10;12.60;73.40
68922;DHT22;55959;51.244;5.724;2024-01-30T08:53:36;12.60;73.40
68922;DHT22;55959;51.244;5.724;2024-01-30T08:56:03;12.60;73.30
68922;DHT22;55959;51.244;5.724;2024-01-30T08:58:29;12.60;73.30
68922;DHT22;55959;51.244;5.724;2024-01-30T09:00:55;12.70;73.30
68922;DHT22;55959;51.244;5.724;2024-01-30T09:03:21;12.70;73.30
68922;DHT22;55959;51.244;5.724;2024-01-30T09:05:47;12.70;73.30
68922;DHT22;55959;51.244;5.724;2024-01-30T09:08:13;12.70;73.30
68922;DHT22;55959;51.244;5.724;2024-01-30T09:10:39;12.80;73.20
68922;DHT22;55959;51.244;5.724;2024-01-30T09:13:04;12.80;73.20
68922;DHT22;55959;51.244;5.724;2024-01-30T09:15:30;12.80;74.00
68922;DHT22;55959;51.244;5.724;2024-01-30T09:17:56;12.90;73.20
68922;DHT22;55959;51.244;5.724;2024-01-30T09:20:22;12.90;73.10
68922;DHT22;55959;51.244;5.724;2024-01-30T09:22:48;12.90;73.10
68922;DHT22;55959;51.244;5.724;2024-01-30T09:25:15;12.90;73.00
68922;DHT22;55959;51.244;5.724;2024-01-30T09:27:40;12.90;73.00
68922;DHT22;55959;51.244;5.724;2024-01-30T09:30:07;13.00;73.00
68922;DHT22;55959;51.244;5.724;2024-01-30T09:32:33;13.00;73.00
68922;DHT22;55959;51.244;5.724;2024-01-30T09:34:58;13.00;72.90
68922;DHT22;55959;51.244;5.724;2024-01-30T09:37:24;13.00;72.90
68922;DHT22;55959;51.244;5.724;2024-01-30T09:39:50;13.10;73.00
68922;DHT22;55959;51.244;5.724;2024-01-30T09:42:33;13.10;72.90
68922;DHT22;55959;51.244;5.724;2024-01-30T09:45:03;13.10;72.90
68922;DHT22;55959;51.244;5.724;2024-01-30T09:47:43;13.10;72.80
68922;DHT22;55959;51.244;5.724;2024-01-30T09:50:10;13.20;73.00
68922;DHT22;55959;51.244;5.724;2024-01-30T09:52:38;13.10;72.80
68922;DHT22;55959;51.244;5.724;2024-01-30T09:55:04;13.20;73.00
68922;DHT22;55959;51.244;5.724;2024-01-30T09:57:30;13.20;73.00
68922;DHT22;55959;51.244;5.724;2024-01-30T09:59:57;13.20;73.00
68922;DHT22;55959;51.244;5.724;2024-01-30T10:02:23;13.30;73.00
68922;DHT22;55959;51.244;5.724;2024-01-30T10:04:50;13.30;73.00
68922;DHT22;55959;51.244;5.724;2024-01-30T10:07:17;13.30;73.00
68922;DHT22;55959;51.244;5.724;2024-01-30T10:09:43;13.40;73.00
68922;DHT22;55959;51.244;5.724;2024-01-30T10:12:09;13.40;73.00
68922;DHT22;55959;51.244;5.724;2024-01-30T10:14:39;13.40;73.00
68922;DHT22;55959;51.244;5.724;2024-01-30T10:17:08;13.50;73.00
68922;DHT22;55959;51.244;5.724;2024-01-30T10:19:35;13.50;73.00
68922;DHT22;55959;51.244;5.724;2024-01-30T10:22:01;13.60;72.90
68922;DHT22;55959;51.244;5.724;2024-01-30T10:24:27;13.60;72.90
68922;DHT22;55959;51.244;5.724;2024-01-30T10:26:55;13.60;72.80
68922;DHT22;55959;51.244;5.724;2024-01-30T10:29:21;13.70;72.90
68922;DHT22;55959;51.244;5.724;2024-01-30T10:31:58;13.70;72.80
68922;DHT22;55959;51.244;5.724;2024-01-30T10:34:27;13.70;72.80
68922;DHT22;55959;51.244;5.724;2024-01-30T10:37:09;13.80;72.80
68922;DHT22;55959;51.244;5.724;2024-01-30T10:39:46;13.80;72.70
68922;DHT22;55959;51.244;5.724;2024-01-30T10:42:17;13.80;72.60
68922;DHT22;55959;51.244;5.724;2024-01-30T10:47:37;13.90;72.70
68922;DHT22;55959;51.244;5.724;2024-01-30T10:50:09;14.00;72.80
68922;DHT22;55959;51.244;5.724;2024-01-30T10:52:36;14.00;72.70
68922;DHT22;55959;51.244;5.724;2024-01-30T10:55:04;14.00;73.50
68922;DHT22;55959;51.244;5.724;2024-01-30T10:57:34;14.00;72.60
68922;DHT22;55959;51.244;5.724;2024-01-30T11:00:08;14.10;72.60
68922;DHT22;55959;51.244;5.724;2024-01-30T11:02:45;14.10;72.60
68922;DHT22;55959;51.244;5.724;2024-01-30T11:05:12;14.20;72.50
68922;DHT22;55959;51.244;5.724;2024-01-30T11:07:48;14.20;72.40
68922;DHT22;55959;51.244;5.724;2024-01-30T11:10:14;14.20;72.40
68922;DHT22;55959;51.244;5.724;2024-01-30T11:12:41;14.30;72.40
68922;DHT22;55959;51.244;5.724;2024-01-30T11:15:15;14.30;72.40
68922;DHT22;55959;51.244;5.724;2024-01-30T11:17:50;14.30;72.40
68922;DHT22;55959;51.244;5.724;2024-01-30T11:20:20;14.30;72.30
68922;DHT22;55959;51.244;5.724;2024-01-30T11:22:50;14.40;72.30
68922;DHT22;55959;51.244;5.724;2024-01-30T11:25:19;14.40;72.20
68922;DHT22;55959;51.244;5.724;2024-01-30T11:27:46;14.40;72.20
68922;DHT22;55959;51.244;5.724;2024-01-30T11:30:25;14.40;72.00
68922;DHT22;55959;51.244;5.724;2024-01-30T11:35:41;14.50;72.00
68922;DHT22;55959;51.244;5.724;2024-01-30T11:38:09;14.50;71.90
68922;DHT22;55959;51.244;5.724;2024-01-30T11:40:38;14.50;71.90
68922;DHT22;55959;51.244;5.724;2024-01-30T11:43:06;14.60;71.90
68922;DHT22;55959;51.244;5.724;2024-01-30T11:45:33;14.60;71.80
68922;DHT22;55959;51.244;5.724;2024-01-30T11:48:00;14.60;71.70
68922;DHT22;55959;51.244;5.724;2024-01-30T11:50:29;14.60;72.50
68922;DHT22;55959;51.244;5.724;2024-01-30T11:52:59;14.60;71.60
68922;DHT22;55959;51.244;5.724;2024-01-30T11:55:25;14.60;71.60
68922;DHT22;55959;51.244;5.724;2024-01-30T11:57:54;14.70;71.60
68922;DHT22;55959;51.244;5.724;2024-01-30T12:00:20;14.70;71.60
68922;DHT22;55959;51.244;5.724;2024-01-30T12:02:53;14.70;71.40
68922;DHT22;55959;51.244;5.724;2024-01-30T12:05:24;14.70;71.40
68922;DHT22;55959;51.244;5.724;2024-01-30T12:07:50;14.70;71.40
68922;DHT22;55959;51.244;5.724;2024-01-30T12:10:16;14.80;71.50
68922;DHT22;55959;51.244;5.724;2024-01-30T12:12:47;14.80;71.40
68922;DHT22;55959;51.244;5.724;2024-01-30T12:15:15;14.80;71.40
68922;DHT22;55959;51.244;5.724;2024-01-30T12:17:41;14.80;71.30
68922;DHT22;55959;51.244;5.724;2024-01-30T12:20:15;14.80;71.30
68922;DHT22;55959;51.244;5.724;2024-01-30T12:22:44;14.90;71.20
68922;DHT22;55959;51.244;5.724;2024-01-30T12:25:20;14.90;71.10
68922;DHT22;55959;51.244;5.724;2024-01-30T12:27:48;14.90;71.00
68922;DHT22;55959;51.244;5.724;2024-01-30T12:30:18;14.90;70.90
68922;DHT22;55959;51.244;5.724;2024-01-30T12:32:47;14.90;70.80
68922;DHT22;55959;51.244;5.724;2024-01-30T12:35:18;14.90;70.80
68922;DHT22;55959;51.244;5.724;2024-01-30T12:37:46;14.90;70.70
68922;DHT22;55959;51.244;5.724;2024-01-30T12:40:16;14.90;70.50
68922;DHT22;55959;51.244;5.724;2024-01-30T12:42:43;15.00;70.60
68922;DHT22;55959;51.244;5.724;2024-01-30T12:45:11;15.00;70.40
68922;DHT22;55959;51.244;5.724;2024-01-30T12:47:39;15.00;70.30
68922;DHT22;55959;51.244;5.724;2024-01-30T12:50:06;15.00;70.20
68922;DHT22;55959;51.244;5.724;2024-01-30T12:52:32;15.00;70.20
68922;DHT22;55959;51.244;5.724;2024-01-30T12:54:58;15.00;70.10
68922;DHT22;55959;51.244;5.724;2024-01-30T12:57:24;15.00;70.00
68922;DHT22;55959;51.244;5.724;2024-01-30T12:59:49;15.00;69.90
68922;DHT22;55959;51.244;5.724;2024-01-30T13:02:16;15.00;69.90
68922;DHT22;55959;51.244;5.724;2024-01-30T13:04:42;15.00;69.80
68922;DHT22;55959;51.244;5.724;2024-01-30T13:07:08;15.10;69.80
68922;DHT22;55959;51.244;5.724;2024-01-30T13:09:34;15.10;69.60
68922;DHT22;55959;51.244;5.724;2024-01-30T13:12:00;15.10;69.20
68922;DHT22;55959;51.244;5.724;2024-01-30T13:14:26;15.10;69.00
68922;DHT22;55959;51.244;5.724;2024-01-30T13:16:52;15.10;68.60
68922;DHT22;55959;51.244;5.724;2024-01-30T13:19:18;15.00;68.30
68922;DHT22;55959;51.244;5.724;2024-01-30T13:21:44;15.10;68.10
68922;DHT22;55959;51.244;5.724;2024-01-30T13:24:09;15.00;67.70
68922;DHT22;55959;51.244;5.724;2024-01-30T13:26:36;15.00;67.60
68922;DHT22;55959;51.244;5.724;2024-01-30T13:29:02;15.00;67.40
68922;DHT22;55959;51.244;5.724;2024-01-30T13:31:28;15.00;67.40
68922;DHT22;55959;51.244;5.724;2024-01-30T13:33:54;15.00;67.20
68922;DHT22;55959;51.244;5.724;2024-01-30T13:36:21;15.00;67.00
68922;DHT22;55959;51.244;5.724;2024-01-30T13:38:47;15.00;66.70
68922;DHT22;55959;51.244;5.724;2024-01-30T13:41:12;15.00;66.60
68922;DHT22;55959;51.244;5.724;2024-01-30T13:43:38;15.00;66.30
68922;DHT22;55959;51.244;5.724;2024-01-30T13:46:04;15.00;66.20
68922;DHT22;55959;51.244;5.724;2024-01-30T13:48:31;15.00;65.90
68922;DHT22;55959;51.244;5.724;2024-01-30T13:50:57;15.00;65.50
68922;DHT22;55959;51.244;5.724;2024-01-30T13:53:23;15.00;65.40
68922;DHT22;55959;51.244;5.724;2024-01-30T13:55:49;15.00;65.30
68922;DHT22;55959;51.244;5.724;2024-01-30T13:58:14;15.00;64.60
68922;DHT22;55959;51.244;5.724;2024-01-30T14:00:40;15.00;64.10
68922;DHT22;55959;51.244;5.724;2024-01-30T14:03:06;15.00;63.80
68922;DHT22;55959;51.244;5.724;2024-01-30T14:05:32;15.00;63.50
68922;DHT22;55959;51.244;5.724;2024-01-30T14:07:58;15.00;63.20
68922;DHT22;55959;51.244;5.724;2024-01-30T14:10:25;15.00;63.00
68922;DHT22;55959;51.244;5.724;2024-01-30T14:12:51;15.00;62.80
68922;DHT22;55959;51.244;5.724;2024-01-30T14:15:17;15.00;62.80
68922;DHT22;55959;51.244;5.724;2024-01-30T14:17:47;15.10;62.80
68922;DHT22;55959;51.244;5.724;2024-01-30T14:20:15;15.10;62.70
68922;DHT22;55959;51.244;5.724;2024-01-30T14:22:46;15.20;62.70
68922;DHT22;55959;51.244;5.724;2024-01-30T14:25:12;15.20;62.40
68922;DHT22;55959;51.244;5.724;2024-01-30T14:27:44;15.20;62.20
68922;DHT22;55959;51.244;5.724;2024-01-30T14:30:10;15.20;62.00
68922;DHT22;55959;51.244;5.724;2024-01-30T14:32:36;15.30;61.70
68922;DHT22;55959;51.244;5.724;2024-01-30T14:35:04;15.30;61.50
68922;DHT22;55959;51.244;5.724;2024-01-30T14:37:30;15.30;61.20
68922;DHT22;55959;51.244;5.724;2024-01-30T14:39:56;15.30;61.00
68922;DHT22;55959;51.244;5.724;2024-01-30T14:42:22;15.40;60.80
68922;DHT22;55959;51.244;5.724;2024-01-30T14:44:47;15.40;60.70
68922;DHT22;55959;51.244;5.724;2024-01-30T14:47:14;15.40;60.70
68922;DHT22;55959;51.244;5.724;2024-01-30T14:49:40;15.40;60.60
68922;DHT22;55959;51.244;5.724;2024-01-30T14:52:06;15.40;60.40
68922;DHT22;55959;51.244;5.724;2024-01-30T14:54:32;15.40;60.20
68922;DHT22;55959;51.244;5.724;2024-01-30T14:56:58;15.40;59.90
68922;DHT22;55959;51.244;5.724;2024-01-30T14:59:24;15.40;59.80
68922;DHT22;55959;51.244;5.724;2024-01-30T15:01:50;15.40;59.80
68922;DHT22;55959;51.244;5.724;2024-01-30T15:04:16;15.40;59.70
68922;DHT22;55959;51.244;5.724;2024-01-30T15:06:42;15.40;59.70
68922;DHT22;55959;51.244;5.724;2024-01-30T15:09:11;15.40;59.40
68922;DHT22;55959;51.244;5.724;2024-01-30T15:11:44;15.40;59.00
68922;DHT22;55959;51.244;5.724;2024-01-30T15:14:10;15.40;58.70
68922;DHT22;55959;51.244;5.724;2024-01-30T15:16:36;15.30;58.50
68922;DHT22;55959;51.244;5.724;2024-01-30T15:19:02;15.30;58.40
68922;DHT22;55959;51.244;5.724;2024-01-30T15:21:30;15.30;58.30
68922;DHT22;55959;51.244;5.724;2024-01-30T15:23:56;15.30;58.40
68922;DHT22;55959;51.244;5.724;2024-01-30T15:26:22;15.20;58.40
68922;DHT22;55959;51.244;5.724;2024-01-30T15:28:48;15.20;58.40
68922;DHT22;55959;51.244;5.724;2024-01-30T15:31:14;15.20;58.40
68922;DHT22;55959;51.244;5.724;2024-01-30T15:33:39;15.10;58.30